Time;durP1;ratioP1;P1;durP2;ratioP2;P2;SDS_P1;SDS_P2;PMS_P1;PMS_P2;Temp;Humidity;BMP_temperature;BMP_pressure;BME280_temperature;BME280_humidity;BME280_pressure;Samples;Min_cycle;Max_cycle;Signal;HPM_P1;HPM_P2
2022/05/03 00:02:32;;;;;;;10.53;5.42;;;;;;;11.93;58.03;98918.08;1698146;83;21031;-84
2022/05/03 00:05:10;;;;;;;9.05;5.08;;;;;;;11.91;58.85;98917.28;1737801;82;21006;-83
2022/05/03 00:08:05;;;;;;;15.72;6.22;;;;;;;11.88;58.63;98913.46;1729820;82;20998;-83
2022/05/03 00:10:47;;;;;;;;;;;;;;;11.88;58.06;98918.67;1745066;82;21618;-84
2022/05/03 00:13:19;;;;;;;12.68;5.70;;;;;;;11.79;59.74;98921.57;1726219;82;20160;-84
2022/05/03 00:15:47;;;;;;;14.40;6.05;;;;;;;11.70;60.77;98913.16;1721772;83;21011;-84
2022/05/03 00:18:15;;;;;;;12.30;5.72;;;;;;;11.65;59.21;98918.95;1710967;83;21580;-83
2022/05/03 00:20:46;;;;;;;12.18;5.20;;;;;;;11.61;59.63;98919.95;1716221;83;21086;-82
2022/05/03 00:23:12;;;;;;;10.98;5.28;;;;;;;11.59;58.84;98923.06;1733386;82;21056;-84
2022/05/03 00:25:39;;;;;;;13.38;4.95;;;;;;;11.57;59.47;98918.81;1734955;82;21036;-84
2022/05/03 00:28:06;;;;;;;9.10;4.28;;;;;;;11.55;57.55;98921.00;1737651;82;21057;-84
2022/05/03 00:30:35;;;;;;;12.53;5.15;;;;;;;11.52;58.18;98922.41;1735965;82;21080;-84
2022/05/03 00:33:09;;;;;;;7.97;4.35;;;;;;;11.48;58.38;98923.41;1738273;82;21023;-84
2022/05/03 00:35:32;;;;;;;12.75;4.62;;;;;;;11.47;57.92;98928.66;1747116;82;21064;-84
2022/05/03 00:37:58;;;;;;;8.73;4.42;;;;;;;11.44;58.08;98927.02;1728765;82;20995;-83
2022/05/03 00:40:26;;;;;;;9.20;4.80;;;;;;;11.42;58.29;98924.91;1722124;82;21491;-85
2022/05/03 00:43:07;;;;;;;8.15;4.28;;;;;;;11.38;58.03;98922.00;1737017;82;21008;-84
2022/05/03 00:46:00;;;;;;;9.15;5.00;;;;;;;11.35;58.18;98927.28;1738501;82;21000;-84
2022/05/03 00:48:54;;;;;;;9.55;4.12;;;;;;;11.23;59.52;98919.41;1746699;82;20996;-84
2022/05/03 00:51:44;;;;;;;9.37;4.33;;;;;;;11.17;59.22;98923.50;1714944;82;20996;-83
2022/05/03 00:54:39;;;;;;;8.80;4.42;;;;;;;11.08;61.25;98922.46;1733628;82;21004;-84
2022/05/03 00:57:25;;;;;;;9.73;4.37;;;;;;;11.06;59.46;98921.66;1743648;82;20968;-84
2022/05/03 01:00:03;;;;;;;8.63;4.83;;;;;;;11.00;59.85;98925.74;1743133;82;21093;-84
2022/05/03 01:03:09;;;;;;;8.48;4.42;;;;;;;11.00;59.26;98925.74;1732844;82;21068;-83
2022/05/03 01:06:09;;;;;;;7.75;4.35;;;;;;;10.92;61.88;98922.94;1710686;83;21053;-84
2022/05/03 01:09:02;;;;;;;8.38;4.65;;;;;;;10.85;61.29;98924.00;1716587;82;21040;-84
2022/05/03 01:11:50;;;;;;;11.80;4.00;;;;;;;10.78;61.12;98926.36;1743803;82;21041;-83
2022/05/03 01:14:51;;;;;;;17.48;4.60;;;;;;;10.72;63.36;98921.34;1737821;82;21045;-83
2022/05/03 01:17:49;;;;;;;8.40;4.08;;;;;;;10.68;62.97;98924.50;1740769;82;21014;-83
2022/05/03 01:20:49;;;;;;;13.93;4.42;;;;;;;10.69;62.20;98925.34;1741996;82;21002;-83
2022/05/03 01:23:29;;;;;;;10.80;4.33;;;;;;;10.67;62.45;98920.18;1750400;82;20994;-83
2022/05/03 01:26:16;;;;;;;;;;;;;;;10.68;62.22;98921.90;1742163;82;21064;-82
2022/05/03 01:29:17;;;;;;;8.83;4.67;;;;;;;10.72;61.80;98927.84;1743429;82;20103;-83
2022/05/03 01:31:43;;;;;;;11.73;4.60;;;;;;;10.70;61.55;98927.91;1720919;83;21055;-84
2022/05/03 01:34:12;;;;;;;8.45;4.20;;;;;;;10.74;61.50;98925.63;1715657;82;20994;-83
2022/05/03 01:37:21;;;;;;;12.90;4.75;;;;;;;10.76;60.45;98924.25;1722299;83;21065;-83
2022/05/03 01:40:14;;;;;;;9.35;3.83;;;;;;;10.76;60.22;98917.75;1722387;83;21014;-84
2022/05/03 01:42:55;;;;;;;8.50;4.28;;;;;;;10.74;60.51;98929.52;1722430;83;21089;-84
2022/05/03 01:45:32;;;;;;;11.78;4.28;;;;;;;10.73;59.99;98921.76;1722663;83;21014;-84
2022/05/03 01:48:12;;;;;;;8.95;4.50;;;;;;;10.73;60.09;98921.30;1743601;82;21055;-82
2022/05/03 01:50:44;;;;;;;11.57;4.10;;;;;;;10.73;59.70;98921.76;1731629;82;21499;-84
2022/05/03 01:53:28;;;;;;;8.95;4.10;;;;;;;10.72;60.59;98924.81;1732307;82;21016;-84
2022/05/03 01:56:38;;;;;;;6.95;3.72;;;;;;;10.69;61.39;98921.44;1737718;82;20940;-83
2022/05/03 01:59:27;;;;;;;14.05;4.10;;;;;;;10.65;60.18;98921.13;1707331;83;21019;-83
2022/05/03 02:02:01;;;;;;;9.40;4.20;;;;;;;10.60;60.33;98916.49;1737545;82;21034;-83
2022/05/03 02:04:51;;;;;;;8.43;4.05;;;;;;;10.57;60.65;98914.84;1722902;83;21129;-81
2022/05/03 02:07:26;;;;;;;6.97;3.52;;;;;;;10.57;59.69;98920.04;1705740;83;21172;-84
2022/05/03 02:10:08;;;;;;;6.92;3.80;;;;;;;10.57;60.45;98919.19;1741590;82;21028;-83
2022/05/03 02:12:35;;;;;;;10.00;4.17;;;;;;;10.57;60.88;98924.39;1736033;82;20998;-82
2022/05/03 02:15:09;;;;;;;15.88;6.12;;;;;;;10.57;61.54;98925.69;1736321;83;21024;-82
2022/05/03 02:17:54;;;;;;;31.50;9.63;;;;;;;10.55;61.13;98925.27;1712535;84;20999;-83
2022/05/03 02:20:47;;;;;;;24.80;8.98;;;;;;;10.54;61.22;98926.61;1687170;84;21044;-83
2022/05/03 02:23:42;;;;;;;44.60;13.78;;;;;;;10.49;60.77;98930.64;1675474;84;21042;-81
2022/05/03 02:26:49;;;;;;;35.68;11.90;;;;;;;10.42;62.77;98927.79;1714797;83;21071;-83
2022/05/03 02:29:35;;;;;;;27.98;9.50;;;;;;;10.34;63.15;98934.94;1714551;83;21134;-83
2022/05/03 02:32:06;;;;;;;24.35;6.70;;;;;;;10.29;64.00;98936.80;1714508;84;21011;-84
2022/05/03 02:34:54;;;;;;;19.60;6.15;;;;;;;10.25;63.46;98936.02;1715482;82;20978;-85
2022/05/03 02:37:47;;;;;;;8.58;4.72;;;;;;;10.22;63.81;98941.73;1692647;84;20972;-85
2022/05/03 02:40:19;;;;;;;9.15;4.42;;;;;;;10.18;66.19;98938.81;1709658;82;21065;-84
2022/05/03 02:42:46;;;;;;;10.48;5.12;;;;;;;10.13;64.69;98941.09;1730467;83;20996;-82
2022/05/03 02:45:13;;;;;;;9.48;4.72;;;;;;;10.08;62.50;98945.53;1737817;83;21036;-82
2022/05/03 02:48:08;;;;;;;9.08;4.30;;;;;;;10.02;64.52;98940.95;1737885;83;21029;-83
2022/05/03 02:50:53;;;;;;;7.85;3.98;;;;;;;9.91;64.96;98936.88;1739835;82;20999;-84
2022/05/03 02:53:50;;;;;;;8.38;4.58;;;;;;;9.84;64.93;98930.58;1736046;82;21012;-84
2022/05/03 02:56:42;;;;;;;9.95;4.03;;;;;;;9.79;64.33;98933.30;1737631;82;20988;-84
2022/05/03 03:01:47;;;;;;;12.85;5.45;;;;;;;9.81;64.87;98941.02;1724151;82;21044;-84
2022/05/03 03:02:14;;;;;;;16.30;6.05;;;;;;;9.82;66.17;98934.95;1715028;83;21066;-83
2022/05/03 03:04:51;;;;;;;12.55;5.35;;;;;;;9.85;67.04;98934.44;1718829;82;21023;-82
2022/05/03 03:07:19;;;;;;;15.40;4.78;;;;;;;9.87;66.81;98931.81;1733006;83;21014;-83
2022/05/03 03:09:56;;;;;;;7.97;4.42;;;;;;;9.89;67.66;98928.73;1739523;82;21061;-83
2022/05/03 03:12:46;;;;;;;12.43;4.72;;;;;;;9.88;67.46;98925.26;1740361;82;21031;-84
2022/05/03 03:15:16;;;;;;;11.53;4.70;;;;;;;9.90;67.97;98929.13;1718473;82;21056;-84
2022/05/03 03:17:47;;;;;;;12.65;4.60;;;;;;;9.91;68.61;98937.34;1709165;83;20995;-84
2022/05/03 03:20:21;;;;;;;9.90;4.60;;;;;;;9.90;67.85;98929.97;1727223;83;21073;-83
2022/05/03 03:22:48;;;;;;;;;;;;;;;9.86;67.26;98932.69;1713515;84;21052;-83
2022/05/03 03:25:19;;;;;;;11.63;4.45;;;;;;;9.81;68.57;98938.01;1719841;83;20095;-83
2022/05/03 03:27:49;;;;;;;9.90;4.45;;;;;;;9.78;67.82;98946.31;1744213;81;21993;-84
2022/05/03 03:30:16;;;;;;;8.85;4.53;;;;;;;9.73;67.37;98938.64;1738024;82;20973;-83
2022/05/03 03:32:50;;;;;;;7.62;4.25;;;;;;;9.70;68.11;98943.44;1732670;83;21028;-84
2022/05/03 03:35:17;;;;;;;;;;;;;;;9.67;67.54;98945.25;1740480;83;21010;-81
2022/05/03 03:37:47;;;;;;;12.25;4.70;;;;;;;9.58;69.20;98942.44;1735211;82;20159;-84
2022/05/03 03:40:17;;;;;;;16.17;5.15;;;;;;;9.51;69.09;98944.34;1722737;83;21048;-84
2022/05/03 03:42:45;;;;;;;8.55;4.15;;;;;;;9.46;66.88;98942.73;1733111;83;21055;-84
2022/05/03 03:45:14;;;;;;;10.45;3.72;;;;;;;9.40;64.41;98951.50;1733181;82;21048;-83
2022/05/03 03:47:44;;;;;;;9.65;4.03;;;;;;;9.36;65.29;98951.16;1733277;82;20981;-83
2022/05/03 03:50:12;;;;;;;12.75;4.35;;;;;;;9.35;66.42;98948.14;1733309;83;21009;-83
2022/05/03 03:52:42;;;;;;;11.60;4.05;;;;;;;9.36;65.54;98945.97;1733270;83;21063;-84
2022/05/03 03:55:11;;;;;;;8.68;4.08;;;;;;;9.33;66.33;98949.50;1730610;83;20997;-83
2022/05/03 03:57:39;;;;;;;5.65;3.60;;;;;;;9.32;65.77;98949.08;1714559;84;21003;-84
2022/05/03 04:00:14;;;;;;;10.38;3.83;;;;;;;9.32;64.69;98950.38;1714965;83;21043;-81
2022/05/03 04:02:42;;;;;;;12.58;3.70;;;;;;;9.33;65.58;98954.69;1715059;83;21055;-83
2022/05/03 04:05:19;;;;;;;7.97;4.17;;;;;;;9.31;66.85;98956.47;1691529;83;21058;-83
2022/05/03 04:07:46;;;;;;;8.93;3.60;;;;;;;9.34;65.11;98960.27;1715038;82;21046;-81
2022/05/03 04:10:13;;;;;;;11.73;3.52;;;;;;;9.38;66.11;98959.77;1715005;84;21023;-83
2022/05/03 04:12:40;;;;;;;8.05;3.33;;;;;;;9.45;65.96;98957.87;1714592;84;21059;-83
2022/05/03 04:15:09;;;;;;;8.83;4.47;;;;;;;9.49;65.97;98964.70;1713664;82;21486;-83
2022/05/03 04:17:35;;;;;;;9.23;3.90;;;;;;;9.54;66.06;98965.46;1720650;83;21043;-84
2022/05/03 04:20:03;;;;;;;7.50;3.95;;;;;;;9.60;66.81;98967.06;1737970;82;21003;-84
2022/05/03 04:22:33;;;;;;;9.25;3.83;;;;;;;9.66;66.14;98965.17;1740562;82;21020;-84
2022/05/03 04:25:01;;;;;;;8.38;3.62;;;;;;;9.69;66.83;98966.41;1740277;82;21022;-82
2022/05/03 04:27:28;;;;;;;11.50;4.12;;;;;;;9.75;65.73;98968.86;1740503;82;21030;-84
2022/05/03 04:29:56;;;;;;;12.50;3.60;;;;;;;9.80;65.76;98967.89;1740319;82;21029;-83
2022/05/03 04:32:25;;;;;;;10.48;3.70;;;;;;;9.86;65.22;98967.74;1718632;82;21026;-83
2022/05/03 04:34:51;;;;;;;9.33;4.03;;;;;;;9.89;64.95;98963.34;1692582;84;21055;-84
2022/05/03 04:37:18;;;;;;;14.80;3.80;;;;;;;9.96;64.95;98970.52;1709195;83;20986;-84
2022/05/03 04:39:44;;;;;;;7.92;3.55;;;;;;;10.02;64.45;98965.17;1715136;84;20966;-84
2022/05/03 04:42:12;;;;;;;10.38;4.22;;;;;;;10.07;64.36;98969.82;1728592;83;21068;-82
2022/05/03 04:44:39;;;;;;;7.47;3.30;;;;;;;10.12;64.54;98972.30;1737899;82;21142;-84
2022/05/03 04:47:06;;;;;;;7.33;3.95;;;;;;;10.20;64.10;98963.01;1738027;82;21026;-82
2022/05/03 04:49:33;;;;;;;8.43;3.85;;;;;;;10.22;64.22;98971.61;1740188;82;21006;-84
2022/05/03 04:51:59;;;;;;;10.35;4.12;;;;;;;10.29;64.76;98969.28;1739926;82;21019;-83
2022/05/03 04:54:27;;;;;;;7.87;3.50;;;;;;;10.38;63.98;98971.65;1719464;82;22236;-84
2022/05/03 04:57:03;;;;;;;7.37;3.72;;;;;;;10.45;63.55;98973.20;1714525;84;21011;-84
2022/05/03 04:59:29;;;;;;;9.58;4.03;;;;;;;10.51;63.88;98967.84;1714666;84;21843;-84
2022/05/03 05:01:56;;;;;;;9.40;4.22;;;;;;;10.58;63.08;98971.11;1701946;84;21011;-83
2022/05/03 05:04:23;;;;;;;18.50;4.05;;;;;;;10.63;62.98;98977.06;1714617;83;21094;-84
2022/05/03 05:06:50;;;;;;;8.83;4.47;;;;;;;10.69;62.85;98978.64;1714220;84;21121;-83
2022/05/03 05:09:16;;;;;;;14.43;4.20;;;;;;;10.70;63.24;98977.73;1714688;83;20991;-84
2022/05/03 05:11:43;;;;;;;12.00;4.28;;;;;;;10.76;63.69;98971.06;1732869;83;21030;-84
2022/05/03 05:14:09;;;;;;;10.35;3.80;;;;;;;10.85;63.47;98977.31;1740037;82;21012;-84
2022/05/03 05:16:36;;;;;;;10.93;4.60;;;;;;;10.94;63.79;98969.27;1731164;82;20963;-84
2022/05/03 05:19:03;;;;;;;10.82;5.25;;;;;;;11.04;63.36;98974.18;1714203;82;20957;-84
2022/05/03 05:21:29;;;;;;;8.33;4.30;;;;;;;11.11;63.44;98972.66;1717348;83;21819;-83
2022/05/03 05:23:56;;;;;;;12.13;4.00;;;;;;;11.16;62.94;98972.55;1739914;82;21056;-84
2022/05/03 05:26:22;;;;;;;11.88;4.37;;;;;;;11.24;62.46;98974.47;1732173;81;21043;-85
2022/05/03 05:28:49;;;;;;;8.15;3.85;;;;;;;11.31;62.48;98969.47;1730440;82;20964;-84
2022/05/03 05:31:15;;;;;;;8.75;3.65;;;;;;;11.33;62.18;98970.27;1739718;81;21027;-85
2022/05/03 05:33:42;;;;;;;10.08;3.70;;;;;;;11.38;61.73;98966.25;1739660;82;21047;-82
2022/05/03 05:36:09;;;;;;;8.00;3.50;;;;;;;11.45;61.63;98965.60;1738794;82;21094;-83
2022/05/03 05:38:35;;;;;;;13.40;3.90;;;;;;;11.54;61.72;98966.17;1743215;82;21018;-84
2022/05/03 05:41:14;;;;;;;5.30;3.33;;;;;;;11.70;61.19;98977.42;1732095;82;21078;-85
2022/05/03 05:43:42;;;;;;;9.03;3.55;;;;;;;11.78;60.79;98972.81;1737691;82;20987;-84
2022/05/03 05:46:09;;;;;;;7.72;3.27;;;;;;;11.89;60.42;98973.80;1728526;82;21079;-84
2022/05/03 05:48:39;;;;;;;8.63;3.65;;;;;;;12.02;60.09;98969.05;1736009;82;20972;-84
2022/05/03 05:51:05;;;;;;;8.98;3.60;;;;;;;12.12;59.93;98976.50;1724100;83;21089;-82
2022/05/03 05:53:32;;;;;;;8.93;3.77;;;;;;;12.23;59.88;98983.11;1732480;82;20975;-80
2022/05/03 05:56:02;;;;;;;12.90;4.65;;;;;;;12.38;59.73;98978.69;1727093;82;21012;-82
2022/05/03 05:58:30;;;;;;;14.43;5.28;;;;;;;12.51;59.72;98980.40;1701356;83;21489;-83
2022/05/03 06:00:57;;;;;;;15.40;6.20;;;;;;;12.67;59.59;98977.67;1729280;81;21540;-84
2022/05/03 06:03:26;;;;;;;10.38;4.42;;;;;;;12.78;58.79;98981.19;1722044;83;20973;-82
2022/05/03 06:05:52;;;;;;;9.13;4.87;;;;;;;12.87;58.49;98973.47;1723358;81;21177;-82
2022/05/03 06:08:19;;;;;;;9.75;3.85;;;;;;;12.98;58.10;98974.41;1712962;83;21058;-82
2022/05/03 06:10:46;;;;;;;16.40;4.15;;;;;;;13.06;58.27;98977.12;1699832;83;21048;-83
2022/05/03 06:13:13;;;;;;;12.13;4.17;;;;;;;13.17;58.29;98972.82;1711567;82;21582;-83
2022/05/03 06:15:40;;;;;;;8.43;3.95;;;;;;;13.31;57.83;98978.39;1721086;81;20950;-81
2022/05/03 06:18:10;;;;;;;11.57;4.12;;;;;;;13.40;56.71;98971.11;1727795;81;20964;-83
2022/05/03 06:20:38;;;;;;;13.70;3.92;;;;;;;13.50;56.74;98973.76;1688681;82;21431;-83
2022/05/03 06:23:05;;;;;;;11.20;4.75;;;;;;;13.57;56.77;98977.84;1720047;82;21061;-82
2022/05/03 06:25:32;;;;;;;7.65;3.85;;;;;;;13.62;55.81;98974.58;1728112;81;20969;-84
2022/05/03 06:27:58;;;;;;;10.68;4.20;;;;;;;13.73;55.56;98978.94;1702128;82;20963;-82
2022/05/03 06:30:25;;;;;;;8.45;4.65;;;;;;;13.78;54.86;98978.73;1737983;81;21147;-83
2022/05/03 06:32:52;;;;;;;18.92;5.25;;;;;;;13.80;55.12;98979.99;1715374;83;21020;-82
2022/05/03 06:35:19;;;;;;;10.43;4.97;;;;;;;13.85;54.40;98982.82;1712222;82;20977;-83
2022/05/03 06:37:46;;;;;;;9.43;4.87;;;;;;;13.82;54.07;98982.93;1727695;81;20952;-81
2022/05/03 06:40:12;;;;;;;13.05;5.90;;;;;;;13.80;53.66;98984.75;1731768;81;21097;-86
2022/05/03 06:42:40;;;;;;;12.30;5.75;;;;;;;13.84;52.49;98986.80;1724002;81;21569;-82
2022/05/03 06:45:10;;;;;;;9.75;4.60;;;;;;;13.86;52.99;98982.36;1729050;81;21039;-84
2022/05/03 06:47:38;;;;;;;9.85;5.05;;;;;;;13.85;52.37;98985.90;1726854;82;21019;-84
2022/05/03 06:50:07;;;;;;;10.40;5.42;;;;;;;13.88;52.63;98982.68;1730341;81;21077;-86
2022/05/03 06:52:56;;;;;;;10.10;4.60;;;;;;;13.95;52.94;98988.53;1732718;82;21014;-83
2022/05/03 06:55:23;;;;;;;12.50;4.70;;;;;;;14.04;52.50;98987.30;1713407;83;21010;-84
2022/05/03 06:57:50;;;;;;;8.35;4.70;;;;;;;14.09;51.90;98987.97;1722469;81;20988;-84
2022/05/03 07:00:17;;;;;;;8.98;5.12;;;;;;;14.08;50.63;98992.78;1693584;82;20954;-85
2022/05/03 07:02:43;;;;;;;13.48;7.00;;;;;;;14.09;50.82;98984.89;1715342;81;21018;-83
2022/05/03 07:05:10;;;;;;;14.95;7.65;;;;;;;14.16;50.15;98982.86;1710514;82;21129;-82
2022/05/03 07:07:38;;;;;;;18.25;8.28;;;;;;;14.25;50.41;98988.19;1709016;84;21518;-85
2022/05/03 07:10:06;;;;;;;19.10;7.60;;;;;;;14.28;50.91;98985.42;1723579;82;21547;-83
2022/05/03 07:12:33;;;;;;;17.60;7.80;;;;;;;14.32;50.87;98986.56;1725571;82;21047;-83
2022/05/03 07:15:01;;;;;;;14.70;7.80;;;;;;;14.36;50.94;98982.48;1728426;82;21065;-82
2022/05/03 07:22:59;;;;;;;14.33;7.28;;;;;;;14.88;50.97;98982.43;1719194;83;21017;-82
2022/05/03 07:25:26;;;;;;;17.92;7.30;;;;;;;15.08;50.99;98983.28;1724311;81;21064;-85
2022/05/03 07:27:53;;;;;;;12.00;6.47;;;;;;;15.23;50.65;98985.20;1722865;82;21020;-81
2022/05/03 07:30:21;;;;;;;16.70;7.05;;;;;;;15.32;50.51;98983.95;1725578;81;21020;-81
2022/05/03 07:32:47;;;;;;;18.25;8.63;;;;;;;15.48;50.50;98977.54;1723458;82;21055;-83
2022/05/03 07:35:14;;;;;;;19.48;7.78;;;;;;;15.60;49.90;98972.19;1725433;83;21669;-84
2022/05/03 07:37:41;;;;;;;13.50;6.53;;;;;;;15.82;49.59;98975.49;1711737;82;20972;-83
2022/05/03 07:40:10;;;;;;;18.92;6.72;;;;;;;16.00;49.38;98978.14;1724486;82;21055;-83
2022/05/03 07:42:37;;;;;;;15.68;7.87;;;;;;;16.20;49.01;98983.72;1701036;83;20948;-83
2022/05/03 07:45:05;;;;;;;17.85;7.62;;;;;;;16.35;48.79;98982.08;1725269;81;21056;-84
2022/05/03 07:47:32;;;;;;;18.55;9.08;;;;;;;16.55;48.65;98981.91;1721707;82;21086;-83
2022/05/03 07:49:59;;;;;;;20.15;8.48;;;;;;;16.62;48.65;98973.27;1724832;82;21083;-83
2022/05/03 07:52:27;;;;;;;18.95;8.10;;;;;;;16.70;48.35;98969.78;1720154;82;21047;-82
2022/05/03 07:54:55;;;;;;;19.30;8.70;;;;;;;16.77;47.99;98973.80;1725696;83;21653;-82
2022/05/03 07:57:22;;;;;;;17.92;9.20;;;;;;;16.77;47.79;98978.17;1717174;81;20985;-88
2022/05/03 07:59:49;;;;;;;16.73;7.10;;;;;;;16.95;48.11;98975.08;1729156;82;20988;-86
2022/05/03 08:02:15;;;;;;;15.40;6.40;;;;;;;17.01;46.78;98975.61;1726883;82;21044;-86
2022/05/03 08:04:42;;;;;;;13.55;6.25;;;;;;;17.05;47.23;98972.33;1726737;82;21255;-84
2022/05/03 08:07:08;;;;;;;12.25;5.62;;;;;;;17.15;47.20;98976.19;1709915;82;20978;-87
2022/05/03 08:09:36;;;;;;;10.55;5.25;;;;;;;17.34;46.18;98979.96;1718729;82;21053;-88
2022/05/03 08:12:05;;;;;;;11.12;5.40;;;;;;;17.22;45.28;98980.16;1734314;82;20980;-86
2022/05/03 08:14:32;;;;;;;12.53;5.83;;;;;;;17.16;44.97;98980.97;1720670;83;21902;-84
2022/05/03 08:16:59;;;;;;;9.05;5.40;;;;;;;17.23;45.49;98979.69;1721856;83;20986;-85
2022/05/03 08:19:26;;;;;;;11.60;5.78;;;;;;;17.36;45.07;98985.14;1731425;82;21100;-87
2022/05/03 08:21:54;;;;;;;7.55;4.90;;;;;;;17.46;44.59;98981.07;1726444;82;20977;-87
2022/05/03 08:24:20;;;;;;;9.75;5.03;;;;;;;17.58;45.55;98975.13;1731958;82;21008;-86
2022/05/03 08:26:47;;;;;;;10.30;4.70;;;;;;;17.65;45.45;98975.18;1741345;82;21032;-88
2022/05/03 08:29:14;;;;;;;11.03;5.05;;;;;;;17.66;44.47;98983.43;1728591;82;21070;-88
2022/05/03 08:31:41;;;;;;;11.97;4.95;;;;;;;17.80;45.23;98974.77;1730325;82;20980;-91
2022/05/03 08:34:08;;;;;;;16.80;5.20;;;;;;;17.87;44.03;98978.78;1755709;82;21019;-87
2022/05/03 08:36:35;;;;;;;10.65;4.30;;;;;;;17.85;43.95;98976.71;1742164;82;21027;-89
2022/05/03 08:42:01;;;;;;;9.18;4.37;;;;;;;17.98;44.69;98974.22;1719729;83;21004;-90
2022/05/03 08:44:30;;;;;;;10.98;4.50;;;;;;;18.03;44.09;98976.12;1746250;78;21107;-84
2022/05/03 08:50:08;;;;;;;10.80;4.65;;;;;;;18.17;44.35;98981.91;1740087;78;21046;-88
2022/05/03 08:52:51;;;;;;;10.72;4.35;;;;;;;18.31;44.20;98973.69;1716328;76;21133;-89
2022/05/03 08:55:18;;;;;;;10.85;3.92;;;;;;;18.42;43.55;98977.83;1701388;83;21023;-89
2022/05/03 08:57:46;;;;;;;10.75;4.47;;;;;;;18.44;44.30;98980.77;1679026;84;21090;-90
2022/05/03 09:00:15;;;;;;;10.28;4.10;;;;;;;18.53;44.09;98974.09;1662249;84;21071;-90
2022/05/03 09:02:52;;;;;;;10.68;4.12;;;;;;;18.64;43.61;98977.39;1677624;85;21134;-90
2022/05/03 09:05:20;;;;;;;8.25;4.08;;;;;;;18.85;44.02;98980.08;1668725;84;21040;-90
2022/05/03 09:07:56;;;;;;;9.03;3.40;;;;;;;19.00;43.92;98970.41;1677627;85;21065;-90
2022/05/03 09:10:31;;;;;;;7.70;3.00;;;;;;;19.02;40.55;98975.11;1677864;84;21042;-88
2022/05/03 09:13:18;;;;;;;8.65;3.05;;;;;;;19.10;42.06;98967.18;1683903;83;21072;-89
2022/05/03 09:15:55;;;;;;;12.75;3.10;;;;;;;19.17;41.50;98968.02;1653651;85;21068;-88
2022/05/03 09:18:31;;;;;;;8.80;3.25;;;;;;;19.31;41.25;98967.64;1599982;89;21073;-89
2022/05/03 09:23:51;;;;;;;5.15;2.35;;;;;;;19.64;39.41;98952.30;1633271;87;21079;-89
2022/05/03 09:26:33;;;;;;;7.08;3.20;;;;;;;19.79;38.40;98957.06;1648007;87;21150;-89
2022/05/03 09:29:08;;;;;;;7.85;2.52;;;;;;;19.98;39.20;98950.61;1655129;86;21093;-90
2022/05/03 09:31:46;;;;;;;5.05;2.50;;;;;;;20.15;39.20;98943.70;1672191;85;21039;-90
2022/05/03 09:34:28;;;;;;;5.53;2.20;;;;;;;20.31;38.48;98945.33;1666430;85;21005;-88
2022/05/03 09:37:05;;;;;;;6.55;2.70;;;;;;;20.54;37.88;98943.77;1661911;86;20977;-90
2022/05/03 09:39:37;;;;;;;10.38;4.70;;;;;;;20.67;37.60;98945.95;1656729;84;21027;-89
2022/05/03 09:42:21;;;;;;;6.90;3.40;;;;;;;20.77;35.77;98939.55;1748658;78;21072;-90
2022/05/03 09:44:55;;;;;;;3.85;2.22;;;;;;;21.00;35.81;98936.63;1742456;78;21100;-90
2022/05/03 09:47:29;;;;;;;7.67;2.62;;;;;;;21.13;34.81;98933.50;1739426;82;20993;-88
2022/05/03 09:50:04;;;;;;;6.30;2.47;;;;;;;20.90;33.82;98928.99;1746373;81;21341;-88
2022/05/03 09:52:36;;;;;;;6.22;2.50;;;;;;;20.78;32.51;98925.41;1770734;81;21061;-89
2022/05/03 09:55:07;;;;;;;6.67;2.10;;;;;;;20.90;34.88;98927.67;1740764;82;21130;-90
2022/05/03 09:57:40;;;;;;;5.30;2.17;;;;;;;21.10;34.03;98924.45;1731782;82;21063;-88
2022/05/03 10:00:11;;;;;;;8.80;1.98;;;;;;;21.33;34.37;98921.49;1728397;83;21006;-90
2022/05/03 10:02:43;;;;;;;4.75;2.10;;;;;;;21.51;31.90;98926.44;1731110;80;21035;-86
2022/05/03 10:05:12;;;;;;;5.30;2.60;;;;;;;21.71;34.23;98920.52;1733568;81;21008;-88
2022/05/03 10:07:45;;;;;;;8.68;2.15;;;;;;;21.82;33.14;98918.39;1729090;81;20984;-89
2022/05/03 10:10:16;;;;;;;7.08;2.12;;;;;;;21.93;33.80;98910.50;1675912;86;21039;-88
2022/05/03 10:12:43;;;;;;;10.70;2.47;;;;;;;;;;1659488;85;21211;-90
2022/05/03 10:15:12;;;;;;;5.17;2.22;;;;;;;22.04;33.40;98911.01;1718520;83;21260;-88
2022/05/03 10:20:43;;;;;;;5.08;2.77;;;;;;;22.53;31.92;98906.46;1695499;83;21057;-89
2022/05/03 10:23:33;;;;;;;5.65;2.20;;;;;;;22.57;32.13;98895.98;1701842;83;20979;-89
2022/05/03 10:26:07;;;;;;;4.22;2.15;;;;;;;22.78;32.26;98898.28;1670924;86;21189;-88
2022/05/03 10:29:02;;;;;;;11.65;4.20;;;;;;;23.03;32.34;98895.03;1699157;84;21024;-87
2022/05/03 10:31:33;;;;;;;4.22;2.02;;;;;;;23.18;31.85;98897.80;1702238;83;20973;-88
2022/05/03 10:34:02;;;;;;;4.78;1.82;;;;;;;23.22;31.27;98895.74;1674300;82;21057;-86
2022/05/03 10:36:36;;;;;;;11.48;2.00;;;;;;;23.14;31.01;98889.73;1694251;82;21098;-87
2022/05/03 10:39:21;;;;;;;6.28;2.90;;;;;;;23.14;30.95;98888.86;1676601;84;21554;-84
2022/05/03 10:42:06;;;;;;;3.87;2.22;;;;;;;23.08;30.03;98884.05;1695156;83;21070;-88
2022/05/03 10:45:04;;;;;;;5.05;2.27;;;;;;;23.12;29.86;98885.03;1697186;83;21091;-86
2022/05/03 10:47:52;;;;;;;4.15;2.20;;;;;;;23.11;30.66;98880.68;1671935;84;21063;-89
2022/05/03 10:50:26;;;;;;;11.28;2.85;;;;;;;23.07;30.50;98860.68;1666189;83;21113;-85
2022/05/03 10:53:07;;;;;;;5.42;2.10;;;;;;;23.35;30.75;98875.20;1678377;81;21028;-84
2022/05/03 10:55:40;;;;;;;;;;;;;;;23.46;29.72;98866.37;1695139;83;21055;-86
2022/05/03 10:58:31;;;;;;;9.40;2.50;;;;;;;23.58;28.13;98861.38;1673160;83;20171;-86
2022/05/03 11:01:23;;;;;;;5.40;2.45;;;;;;;23.68;29.84;98861.95;1705869;83;21015;-86
2022/05/03 11:03:57;;;;;;;5.85;2.35;;;;;;;23.72;30.02;98860.73;1698967;83;21062;-86
2022/05/03 11:06:31;;;;;;;8.68;2.25;;;;;;;23.87;30.25;98855.47;1698664;83;21019;-87
2022/05/03 11:09:08;;;;;;;6.90;2.87;;;;;;;23.90;28.49;98856.56;1701270;84;21055;-87
2022/05/03 11:11:42;;;;;;;9.45;2.40;;;;;;;23.96;29.09;98860.02;1701681;83;21046;-90
2022/05/03 11:14:24;;;;;;;7.72;2.50;;;;;;;24.09;28.77;98852.34;1704994;82;21146;-89
2022/05/03 11:17:11;;;;;;;10.72;3.00;;;;;;;24.10;28.54;98854.88;1670752;85;24588;-90
2022/05/03 11:19:49;;;;;;;6.55;2.50;;;;;;;24.20;28.83;98856.26;1690553;84;21036;-89
2022/05/03 11:22:28;;;;;;;5.28;2.72;;;;;;;24.29;29.23;98848.84;1707177;83;21074;-89
2022/05/03 11:24:57;;;;;;;6.17;2.67;;;;;;;24.50;28.97;98838.19;1688197;83;21524;-89
2022/05/03 11:27:25;;;;;;;5.55;2.30;;;;;;;24.47;28.85;98845.09;1714862;83;21047;-89
2022/05/03 11:29:59;;;;;;;9.13;2.90;;;;;;;24.44;28.53;98839.19;1728545;82;21055;-89
2022/05/03 11:32:38;;;;;;;10.43;2.75;;;;;;;24.41;27.85;98838.95;1718380;83;21041;-89
2022/05/03 11:35:15;;;;;;;8.75;2.90;;;;;;;24.12;27.69;98836.99;1732835;82;20997;-87
2022/05/03 11:37:52;;;;;;;5.47;2.80;;;;;;;23.60;25.84;98833.40;1716877;83;21008;-86
2022/05/03 11:40:23;;;;;;;9.25;2.83;;;;;;;23.65;27.51;98830.35;1725491;83;21550;-85
2022/05/03 11:42:49;;;;;;;10.45;2.90;;;;;;;23.65;27.76;98830.35;1721326;83;21082;-86
2022/05/03 11:45:18;;;;;;;8.70;3.30;;;;;;;23.55;26.58;98819.66;1710613;83;21039;-80
2022/05/03 11:47:49;;;;;;;8.40;3.05;;;;;;;23.56;26.03;98825.34;1715317;83;21019;-84
2022/05/03 11:55:58;;;;;;;5.97;2.50;;;;;;;23.49;27.41;98820.17;1711221;82;21155;-83
2022/05/03 11:58:30;;;;;;;4.60;2.50;;;;;;;23.49;27.36;98809.56;1707063;83;20979;-82
2022/05/03 12:00:58;;;;;;;4.18;2.22;;;;;;;23.60;27.48;98810.35;1421784;83;9999999;-82
2022/05/03 12:03:25;;;;;;;6.85;2.75;;;;;;;23.58;27.16;98808.31;1690563;83;21439;-83
2022/05/03 12:06:02;;;;;;;4.15;2.22;;;;;;;23.58;26.71;98809.64;1691042;83;21364;-83
2022/05/03 12:08:30;;;;;;;5.67;2.25;;;;;;;23.63;26.87;98807.45;1721688;82;21016;-81
2022/05/03 12:10:57;;;;;;;5.80;2.42;;;;;;;23.69;26.78;98804.75;1695307;83;21066;-82
2022/05/03 12:13:28;;;;;;;6.80;2.55;;;;;;;23.91;26.38;98802.97;1715072;82;21099;-81
2022/05/03 12:16:03;;;;;;;7.08;3.30;;;;;;;24.05;26.98;98801.80;1712636;83;21046;-83
2022/05/03 12:18:34;;;;;;;7.70;2.65;;;;;;;24.30;26.20;98801.86;1712259;82;21035;-82
2022/05/03 12:21:14;;;;;;;5.22;2.55;;;;;;;24.64;25.80;98794.46;1711970;83;21080;-81
2022/05/03 12:23:48;;;;;;;5.72;2.30;;;;;;;25.06;25.98;98795.59;1714697;83;21007;-83
2022/05/03 12:26:25;;;;;;;10.00;2.67;;;;;;;25.50;26.05;98790.74;1717931;83;21071;-82